sensor_id;sensor_type;location;lat;lon;timestamp;pressure;altitude;pressure_sealevel;temperature;humidity
71109;BME280;59614;51.012;-1.648;2023-03-19T00:00:13;100191.50;;;9.91;100.00
71109;BME280;59614;51.012;-1.648;2023-03-19T00:02:39;100193.06;;;10.01;100.00
71109;BME280;59614;51.012;-1.648;2023-03-19T00:05:05;100196.41;;;10.11;100.00
71109;BME280;59614;51.012;-1.648;2023-03-19T00:07:31;100208.25;;;9.88;100.00
71109;BME280;59614;51.012;-1.648;2023-03-19T00:09:56;100216.91;;;9.93;100.00
71109;BME280;59614;51.012;-1.648;2023-03-19T00:12:22;100209.97;;;9.89;100.00
71109;BME280;59614;51.012;-1.648;2023-03-19T00:14:47;100210.75;;;9.96;100.00
71109;BME280;59614;51.012;-1.648;2023-03-19T00:17:13;100205.03;;;9.69;100.00
71109;BME280;59614;51.012;-1.648;2023-03-19T00:19:39;100200.88;;;9.54;100.00
71109;BME280;59614;51.012;-1.648;2023-03-19T00:22:05;100205.31;;;9.52;100.00
71109;BME280;59614;51.012;-1.648;2023-03-19T00:24:30;100209.66;;;9.56;99.33
71109;BME280;59614;51.012;-1.648;2023-03-19T00:26:56;100208.16;;;9.38;98.67
71109;BME280;59614;51.012;-1.648;2023-03-19T00:29:22;100209.81;;;9.43;99.55
71109;BME280;59614;51.012;-1.648;2023-03-19T00:31:48;100210.78;;;9.38;99.03
71109;BME280;59614;51.012;-1.648;2023-03-19T00:34:14;100214.00;;;9.57;97.88
71109;BME280;59614;51.012;-1.648;2023-03-19T00:36:42;100214.28;;;9.40;99.78
71109;BME280;59614;51.012;-1.648;2023-03-19T00:39:08;100215.81;;;9.53;98.46
71109;BME280;59614;51.012;-1.648;2023-03-19T00:41:33;100223.06;;;9.39;99.06
71109;BME280;59614;51.012;-1.648;2023-03-19T00:43:58;100237.38;;;9.21;99.25
71109;BME280;59614;51.012;-1.648;2023-03-19T00:46:24;100243.19;;;9.43;99.21
71109;BME280;59614;51.012;-1.648;2023-03-19T00:48:50;100246.94;;;9.26;99.05
71109;BME280;59614;51.012;-1.648;2023-03-19T00:51:19;100258.19;;;9.38;98.85
71109;BME280;59614;51.012;-1.648;2023-03-19T00:53:45;100264.25;;;9.45;97.74
71109;BME280;59614;51.012;-1.648;2023-03-19T00:56:12;100262.47;;;9.45;96.53
71109;BME280;59614;51.012;-1.648;2023-03-19T00:58:38;100264.06;;;9.57;96.13
71109;BME280;59614;51.012;-1.648;2023-03-19T01:01:06;100272.94;;;9.51;96.31
71109;BME280;59614;51.012;-1.648;2023-03-19T01:03:31;100269.44;;;9.51;95.74
71109;BME280;59614;51.012;-1.648;2023-03-19T01:05:57;100280.41;;;9.20;96.83
71109;BME280;59614;51.012;-1.648;2023-03-19T01:08:23;100282.06;;;9.25;97.37
71109;BME280;59614;51.012;-1.648;2023-03-19T01:10:49;100299.78;;;9.12;98.37
71109;BME280;59614;51.012;-1.648;2023-03-19T01:13:14;100296.81;;;8.65;98.78
71109;BME280;59614;51.012;-1.648;2023-03-19T01:15:42;100294.31;;;8.55;98.23
71109;BME280;59614;51.012;-1.648;2023-03-19T01:18:08;100304.00;;;8.45;97.88
71109;BME280;59614;51.012;-1.648;2023-03-19T01:20:34;100306.84;;;8.22;97.30
71109;BME280;59614;51.012;-1.648;2023-03-19T01:23:00;100313.88;;;8.19;95.95
71109;BME280;59614;51.012;-1.648;2023-03-19T01:25:26;100317.38;;;8.22;96.44
71109;BME280;59614;51.012;-1.648;2023-03-19T01:27:52;100318.00;;;8.45;95.16
71109;BME280;59614;51.012;-1.648;2023-03-19T01:30:18;100318.97;;;8.38;94.25
71109;BME280;59614;51.012;-1.648;2023-03-19T01:32:44;100321.81;;;8.12;96.00
71109;BME280;59614;51.012;-1.648;2023-03-19T01:35:10;100327.84;;;8.25;95.69
71109;BME280;59614;51.012;-1.648;2023-03-19T01:37:35;100332.97;;;8.40;94.39
71109;BME280;59614;51.012;-1.648;2023-03-19T01:40:05;100333.09;;;8.28;93.11
71109;BME280;59614;51.012;-1.648;2023-03-19T01:42:31;100348.88;;;8.28;92.67
71109;BME280;59614;51.012;-1.648;2023-03-19T01:44:57;100346.22;;;8.28;91.75
71109;BME280;59614;51.012;-1.648;2023-03-19T01:47:33;100353.25;;;8.26;91.34
71109;BME280;59614;51.012;-1.648;2023-03-19T01:50:00;100356.75;;;8.25;91.38
71109;BME280;59614;51.012;-1.648;2023-03-19T01:52:29;100358.56;;;8.21;92.29
71109;BME280;59614;51.012;-1.648;2023-03-19T01:54:57;100369.97;;;8.18;93.23
71109;BME280;59614;51.012;-1.648;2023-03-19T01:57:24;100371.69;;;8.24;93.00
71109;BME280;59614;51.012;-1.648;2023-03-19T01:59:56;100362.72;;;8.45;93.40
71109;BME280;59614;51.012;-1.648;2023-03-19T02:02:29;100380.25;;;8.53;92.73
71109;BME280;59614;51.012;-1.648;2023-03-19T02:05:11;100383.13;;;8.15;93.25
71109;BME280;59614;51.012;-1.648;2023-03-19T02:07:38;100389.34;;;8.05;96.71
71109;BME280;59614;51.012;-1.648;2023-03-19T02:10:06;100383.06;;;8.26;97.60
71109;BME280;59614;51.012;-1.648;2023-03-19T02:12:33;100385.75;;;8.17;97.05
71109;BME280;59614;51.012;-1.648;2023-03-19T02:14:58;100376.09;;;8.21;98.27
71109;BME280;59614;51.012;-1.648;2023-03-19T02:17:26;100374.44;;;8.10;97.91
71109;BME280;59614;51.012;-1.648;2023-03-19T02:22:34;100364.56;;;8.37;96.62
71109;BME280;59614;51.012;-1.648;2023-03-19T02:25:10;100354.97;;;8.33;96.84
71109;BME280;59614;51.012;-1.648;2023-03-19T02:27:37;100364.63;;;8.31;95.01
71109;BME280;59614;51.012;-1.648;2023-03-19T02:30:31;100365.53;;;8.24;95.18
71109;BME280;59614;51.012;-1.648;2023-03-19T02:32:57;100360.31;;;8.19;95.04
71109;BME280;59614;51.012;-1.648;2023-03-19T02:35:22;100359.38;;;8.28;95.40
71109;BME280;59614;51.012;-1.648;2023-03-19T02:37:48;100370.88;;;8.16;96.11
71109;BME280;59614;51.012;-1.648;2023-03-19T02:40:29;100368.25;;;8.14;96.09
71109;BME280;59614;51.012;-1.648;2023-03-19T02:42:56;100354.34;;;7.97;97.05
71109;BME280;59614;51.012;-1.648;2023-03-19T02:45:21;100367.53;;;7.91;96.91
71109;BME280;59614;51.012;-1.648;2023-03-19T02:47:47;100367.63;;;7.75;97.09
71109;BME280;59614;51.012;-1.648;2023-03-19T02:50:13;100366.78;;;7.67;97.27
71109;BME280;59614;51.012;-1.648;2023-03-19T02:52:38;100360.72;;;7.58;98.36
71109;BME280;59614;51.012;-1.648;2023-03-19T02:55:05;100358.13;;;7.46;99.12
71109;BME280;59614;51.012;-1.648;2023-03-19T02:57:30;100359.94;;;7.41;99.52
71109;BME280;59614;51.012;-1.648;2023-03-19T02:59:56;100359.09;;;7.31;98.96
71109;BME280;59614;51.012;-1.648;2023-03-19T03:02:21;100357.34;;;7.30;100.00
71109;BME280;59614;51.012;-1.648;2023-03-19T03:04:47;100359.97;;;7.25;100.00
71109;BME280;59614;51.012;-1.648;2023-03-19T03:07:13;100360.06;;;6.99;100.00
71109;BME280;59614;51.012;-1.648;2023-03-19T03:09:38;100375.81;;;6.91;100.00
71109;BME280;59614;51.012;-1.648;2023-03-19T03:12:04;100377.59;;;6.86;100.00
71109;BME280;59614;51.012;-1.648;2023-03-19T03:14:30;100382.88;;;6.66;100.00
71109;BME280;59614;51.012;-1.648;2023-03-19T03:16:55;100389.84;;;6.69;100.00
71109;BME280;59614;51.012;-1.648;2023-03-19T03:19:21;100394.25;;;6.68;100.00
71109;BME280;59614;51.012;-1.648;2023-03-19T03:21:47;100397.72;;;6.78;100.00
71109;BME280;59614;51.012;-1.648;2023-03-19T03:24:13;100392.44;;;6.95;100.00
71109;BME280;59614;51.012;-1.648;2023-03-19T03:26:39;100395.06;;;6.87;100.00
71109;BME280;59614;51.012;-1.648;2023-03-19T03:29:06;100400.31;;;6.95;99.27
71109;BME280;59614;51.012;-1.648;2023-03-19T03:31:32;100409.09;;;6.86;98.60
71109;BME280;59614;51.012;-1.648;2023-03-19T03:33:57;100416.06;;;7.01;97.52
71109;BME280;59614;51.012;-1.648;2023-03-19T03:36:23;100422.16;;;6.94;96.85
71109;BME280;59614;51.012;-1.648;2023-03-19T03:38:49;100415.19;;;6.91;96.22
71109;BME280;59614;51.012;-1.648;2023-03-19T03:41:14;100433.56;;;6.60;96.62
71109;BME280;59614;51.012;-1.648;2023-03-19T03:43:40;100429.19;;;6.70;96.75
71109;BME280;59614;51.012;-1.648;2023-03-19T03:46:06;100428.31;;;6.67;96.58
71109;BME280;59614;51.012;-1.648;2023-03-19T03:48:33;100436.19;;;6.65;97.04
71109;BME280;59614;51.012;-1.648;2023-03-19T03:50:59;100436.19;;;6.59;97.08
71109;BME280;59614;51.012;-1.648;2023-03-19T03:53:25;100434.44;;;6.47;96.86
71109;BME280;59614;51.012;-1.648;2023-03-19T03:55:51;100436.19;;;6.40;98.07
71109;BME280;59614;51.012;-1.648;2023-03-19T03:58:16;100437.06;;;6.47;96.72
71109;BME280;59614;51.012;-1.648;2023-03-19T04:00:42;100440.56;;;6.37;96.03
71109;BME280;59614;51.012;-1.648;2023-03-19T04:03:07;100449.28;;;6.40;97.08
71109;BME280;59614;51.012;-1.648;2023-03-19T04:05:33;100455.38;;;6.27;96.71
71109;BME280;59614;51.012;-1.648;2023-03-19T04:07:59;100464.09;;;6.21;97.21
71109;BME280;59614;51.012;-1.648;2023-03-19T04:10:24;100465.84;;;6.11;97.20
71109;BME280;59614;51.012;-1.648;2023-03-19T04:12:50;100473.75;;;6.19;97.42
71109;BME280;59614;51.012;-1.648;2023-03-19T04:15:15;100472.81;;;6.09;97.45
71109;BME280;59614;51.012;-1.648;2023-03-19T04:17:41;100473.69;;;6.05;97.77
71109;BME280;59614;51.012;-1.648;2023-03-19T04:20:08;100470.22;;;6.17;97.35
71109;BME280;59614;51.012;-1.648;2023-03-19T04:22:34;100473.72;;;6.11;96.88
71109;BME280;59614;51.012;-1.648;2023-03-19T04:24:59;100479.78;;;6.04;96.64
71109;BME280;59614;51.012;-1.648;2023-03-19T04:27:25;100484.09;;;5.97;97.40
71109;BME280;59614;51.012;-1.648;2023-03-19T04:29:51;100485.84;;;5.95;98.15
71109;BME280;59614;51.012;-1.648;2023-03-19T04:32:16;100494.59;;;5.94;96.52
71109;BME280;59614;51.012;-1.648;2023-03-19T04:34:42;100484.94;;;5.92;96.37
71109;BME280;59614;51.012;-1.648;2023-03-19T04:37:08;100492.75;;;5.78;97.45
71109;BME280;59614;51.012;-1.648;2023-03-19T04:39:36;100498.03;;;5.84;98.19
71109;BME280;59614;51.012;-1.648;2023-03-19T04:42:02;100499.81;;;5.97;97.09
71109;BME280;59614;51.012;-1.648;2023-03-19T04:44:29;100499.81;;;5.97;95.88
71109;BME280;59614;51.012;-1.648;2023-03-19T04:46:55;100520.75;;;5.88;95.94
71109;BME280;59614;51.012;-1.648;2023-03-19T04:49:20;100516.38;;;5.90;96.15
71109;BME280;59614;51.012;-1.648;2023-03-19T04:51:46;100525.91;;;5.76;95.96
71109;BME280;59614;51.012;-1.648;2023-03-19T04:54:11;100530.25;;;5.67;97.54
71109;BME280;59614;51.012;-1.648;2023-03-19T04:56:37;100525.09;;;5.78;95.92
71109;BME280;59614;51.012;-1.648;2023-03-19T04:59:02;100529.34;;;5.65;96.79
71109;BME280;59614;51.012;-1.648;2023-03-19T05:01:28;100533.75;;;5.71;96.74
71109;BME280;59614;51.012;-1.648;2023-03-19T05:03:53;100540.75;;;5.72;95.47
71109;BME280;59614;51.012;-1.648;2023-03-19T05:06:19;100533.81;;;5.83;95.12
71109;BME280;59614;51.012;-1.648;2023-03-19T05:08:45;100537.34;;;5.84;93.97
71109;BME280;59614;51.012;-1.648;2023-03-19T05:11:11;100542.56;;;5.87;94.11
71109;BME280;59614;51.012;-1.648;2023-03-19T05:13:37;100541.72;;;5.85;95.27
71109;BME280;59614;51.012;-1.648;2023-03-19T05:16:02;100542.56;;;5.79;95.26
71109;BME280;59614;51.012;-1.648;2023-03-19T05:18:28;100546.03;;;5.80;95.61
71109;BME280;59614;51.012;-1.648;2023-03-19T05:20:54;100551.19;;;5.63;96.54
71109;BME280;59614;51.012;-1.648;2023-03-19T05:23:20;100548.63;;;5.77;96.59
71109;BME280;59614;51.012;-1.648;2023-03-19T05:25:47;100552.13;;;5.74;96.09
71109;BME280;59614;51.012;-1.648;2023-03-19T05:28:13;100552.03;;;5.63;96.41
71109;BME280;59614;51.012;-1.648;2023-03-19T05:30:39;100563.47;;;5.71;96.86
71109;BME280;59614;51.012;-1.648;2023-03-19T05:33:05;100566.84;;;5.55;96.31
71109;BME280;59614;51.012;-1.648;2023-03-19T05:35:31;100565.06;;;5.48;96.80
71109;BME280;59614;51.012;-1.648;2023-03-19T05:37:57;100570.31;;;5.52;97.07
71109;BME280;59614;51.012;-1.648;2023-03-19T05:40:23;100579.88;;;5.46;97.06
71109;BME280;59614;51.012;-1.648;2023-03-19T05:42:49;100586.84;;;5.45;98.30
71109;BME280;59614;51.012;-1.648;2023-03-19T05:45:15;100584.25;;;5.45;97.43
71109;BME280;59614;51.012;-1.648;2023-03-19T05:47:41;100595.53;;;5.39;96.81
71109;BME280;59614;51.012;-1.648;2023-03-19T05:50:08;100599.88;;;5.39;97.53
71109;BME280;59614;51.012;-1.648;2023-03-19T05:52:34;100597.25;;;5.37;97.64
71109;BME280;59614;51.012;-1.648;2023-03-19T05:55:00;100597.25;;;5.40;98.40
71109;BME280;59614;51.012;-1.648;2023-03-19T05:57:25;100600.75;;;5.38;97.96
71109;BME280;59614;51.012;-1.648;2023-03-19T05:59:51;100603.34;;;5.36;97.55
71109;BME280;59614;51.012;-1.648;2023-03-19T06:02:16;100610.25;;;5.26;96.95
71109;BME280;59614;51.012;-1.648;2023-03-19T06:04:42;100611.97;;;5.24;97.32
71109;BME280;59614;51.012;-1.648;2023-03-19T06:07:07;100618.97;;;5.22;97.50
71109;BME280;59614;51.012;-1.648;2023-03-19T06:09:33;100630.28;;;5.23;97.31
71109;BME280;59614;51.012;-1.648;2023-03-19T06:11:59;100624.16;;;5.19;97.53
71109;BME280;59614;51.012;-1.648;2023-03-19T06:14:24;100630.22;;;5.14;98.06
71109;BME280;59614;51.012;-1.648;2023-03-19T06:16:50;100632.78;;;5.10;97.98
71109;BME280;59614;51.012;-1.648;2023-03-19T06:19:16;100629.28;;;5.07;97.54
71109;BME280;59614;51.012;-1.648;2023-03-19T06:21:41;100627.31;;;4.86;97.88
71109;BME280;59614;51.012;-1.648;2023-03-19T06:24:07;100637.84;;;4.93;98.19
71109;BME280;59614;51.012;-1.648;2023-03-19T06:26:33;100638.72;;;4.92;98.38
71109;BME280;59614;51.012;-1.648;2023-03-19T06:28:58;100634.38;;;4.93;98.52
71109;BME280;59614;51.012;-1.648;2023-03-19T06:31:24;100647.63;;;5.12;98.45
71109;BME280;59614;51.012;-1.648;2023-03-19T06:33:49;100648.56;;;5.17;97.99
71109;BME280;59614;51.012;-1.648;2023-03-19T06:36:16;100655.44;;;5.08;97.91
71109;BME280;59614;51.012;-1.648;2023-03-19T06:38:42;100659.81;;;5.09;98.33
71109;BME280;59614;51.012;-1.648;2023-03-19T06:41:07;100663.41;;;5.21;97.69
71109;BME280;59614;51.012;-1.648;2023-03-19T06:43:33;100671.28;;;5.24;97.86
71109;BME280;59614;51.012;-1.648;2023-03-19T06:46:04;100670.44;;;5.25;97.32
71109;BME280;59614;51.012;-1.648;2023-03-19T06:48:31;100672.22;;;5.29;97.29
71109;BME280;59614;51.012;-1.648;2023-03-19T06:50:57;100673.91;;;5.24;98.14
71109;BME280;59614;51.012;-1.648;2023-03-19T06:53:22;100674.94;;;5.41;97.79
71109;BME280;59614;51.012;-1.648;2023-03-19T06:55:49;100679.34;;;5.46;97.23
71109;BME280;59614;51.012;-1.648;2023-03-19T06:58:14;100677.69;;;5.59;98.13
71109;BME280;59614;51.012;-1.648;2023-03-19T07:00:40;100675.16;;;5.68;97.20
71109;BME280;59614;51.012;-1.648;2023-03-19T07:03:05;100683.88;;;5.68;96.96
71109;BME280;59614;51.012;-1.648;2023-03-19T07:05:31;100689.38;;;5.99;96.59
71109;BME280;59614;51.012;-1.648;2023-03-19T07:07:57;100673.72;;;6.09;95.09
71109;BME280;59614;51.012;-1.648;2023-03-19T07:10:23;100680.91;;;6.48;94.17
71109;BME280;59614;51.012;-1.648;2023-03-19T07:12:49;100687.09;;;6.61;93.11
71109;BME280;59614;51.012;-1.648;2023-03-19T07:15:14;100692.34;;;6.68;91.40
71109;BME280;59614;51.012;-1.648;2023-03-19T07:17:42;100694.19;;;6.89;90.55
71109;BME280;59614;51.012;-1.648;2023-03-19T07:20:10;100691.63;;;7.09;89.36
71109;BME280;59614;51.012;-1.648;2023-03-19T07:22:35;100696.88;;;7.20;89.02
71109;BME280;59614;51.012;-1.648;2023-03-19T07:25:01;100693.41;;;7.38;89.27
71109;BME280;59614;51.012;-1.648;2023-03-19T07:27:26;100691.69;;;7.65;87.36
71109;BME280;59614;51.012;-1.648;2023-03-19T07:29:52;100696.06;;;7.75;86.00
71109;BME280;59614;51.012;-1.648;2023-03-19T07:32:20;100696.03;;;7.81;85.96
71109;BME280;59614;51.012;-1.648;2023-03-19T07:34:46;100698.66;;;7.72;84.42
71109;BME280;59614;51.012;-1.648;2023-03-19T07:37:11;100702.16;;;8.08;84.49
71109;BME280;59614;51.012;-1.648;2023-03-19T07:39:36;100702.94;;;8.38;83.35
71109;BME280;59614;51.012;-1.648;2023-03-19T07:42:02;100704.69;;;8.42;82.57
71109;BME280;59614;51.012;-1.648;2023-03-19T07:44:28;100709.13;;;8.25;82.94
71109;BME280;59614;51.012;-1.648;2023-03-19T07:46:53;100719.59;;;8.34;82.36
71109;BME280;59614;51.012;-1.648;2023-03-19T07:49:19;100711.75;;;8.28;82.06
71109;BME280;59614;51.012;-1.648;2023-03-19T07:51:45;100711.69;;;8.56;82.11
71109;BME280;59614;51.012;-1.648;2023-03-19T07:54:10;100713.38;;;8.69;81.92
71109;BME280;59614;51.012;-1.648;2023-03-19T07:56:36;100716.88;;;8.74;80.40
71109;BME280;59614;51.012;-1.648;2023-03-19T07:59:01;100717.59;;;9.09;78.92
71109;BME280;59614;51.012;-1.648;2023-03-19T08:01:27;100716.66;;;9.19;78.17
71109;BME280;59614;51.012;-1.648;2023-03-19T08:03:52;100729.69;;;9.42;77.78
71109;BME280;59614;51.012;-1.648;2023-03-19T08:06:17;100735.84;;;9.41;77.30
71109;BME280;59614;51.012;-1.648;2023-03-19T08:08:43;100742.88;;;9.39;76.91
71109;BME280;59614;51.012;-1.648;2023-03-19T08:11:08;100736.84;;;9.22;77.86
71109;BME280;59614;51.012;-1.648;2023-03-19T08:13:34;100736.78;;;9.28;77.89
71109;BME280;59614;51.012;-1.648;2023-03-19T08:15:59;100738.53;;;9.32;76.59
71109;BME280;59614;51.012;-1.648;2023-03-19T08:18:25;100742.78;;;9.52;76.83
71109;BME280;59614;51.012;-1.648;2023-03-19T08:20:51;100748.84;;;9.65;75.41
71109;BME280;59614;51.012;-1.648;2023-03-19T08:23:17;100753.78;;;10.03;74.52
71109;BME280;59614;51.012;-1.648;2023-03-19T08:25:42;100751.13;;;10.07;74.42
71109;BME280;59614;51.012;-1.648;2023-03-19T08:28:08;100757.28;;;10.05;74.06
71109;BME280;59614;51.012;-1.648;2023-03-19T08:30:35;100757.31;;;10.02;73.27
71109;BME280;59614;51.012;-1.648;2023-03-19T08:33:01;100759.91;;;10.09;72.69
71109;BME280;59614;51.012;-1.648;2023-03-19T08:35:26;100769.31;;;10.36;72.00
71109;BME280;59614;51.012;-1.648;2023-03-19T08:37:53;100759.66;;;10.40;71.38
71109;BME280;59614;51.012;-1.648;2023-03-19T08:40:19;100768.63;;;10.18;70.89
71109;BME280;59614;51.012;-1.648;2023-03-19T08:42:45;100767.56;;;10.41;71.93
71109;BME280;59614;51.012;-1.648;2023-03-19T08:45:13;100770.28;;;10.27;71.13
71109;BME280;59614;51.012;-1.648;2023-03-19T08:47:39;100764.75;;;10.57;69.32
71109;BME280;59614;51.012;-1.648;2023-03-19T08:50:06;100771.50;;;10.81;69.85
71109;BME280;59614;51.012;-1.648;2023-03-19T08:52:32;100771.63;;;10.72;68.48
71109;BME280;59614;51.012;-1.648;2023-03-19T08:54:57;100771.63;;;10.72;71.18
71109;BME280;59614;51.012;-1.648;2023-03-19T08:57:23;100782.28;;;10.62;69.96
71109;BME280;59614;51.012;-1.648;2023-03-19T08:59:49;100782.94;;;10.81;70.28
71109;BME280;59614;51.012;-1.648;2023-03-19T09:02:16;100777.78;;;10.72;68.84
71109;BME280;59614;51.012;-1.648;2023-03-19T09:04:43;100783.59;;;11.01;67.45
71109;BME280;59614;51.012;-1.648;2023-03-19T09:07:09;100785.25;;;11.08;67.34
71109;BME280;59614;51.012;-1.648;2023-03-19T09:09:40;100790.50;;;11.12;66.54
71109;BME280;59614;51.012;-1.648;2023-03-19T09:12:08;100783.38;;;11.16;66.85
71109;BME280;59614;51.012;-1.648;2023-03-19T09:14:34;100790.84;;;11.50;64.67
71109;BME280;59614;51.012;-1.648;2023-03-19T09:16:59;100792.78;;;11.40;67.06
71109;BME280;59614;51.012;-1.648;2023-03-19T09:19:25;100796.06;;;11.56;67.33
71109;BME280;59614;51.012;-1.648;2023-03-19T09:21:51;100801.91;;;11.80;64.39
71109;BME280;59614;51.012;-1.648;2023-03-19T09:24:17;100793.31;;;11.63;64.28
71109;BME280;59614;51.012;-1.648;2023-03-19T09:26:43;100803.03;;;11.61;61.67
71109;BME280;59614;51.012;-1.648;2023-03-19T09:29:09;100802.84;;;12.31;62.23
71109;BME280;59614;51.012;-1.648;2023-03-19T09:31:35;100811.59;;;12.36;59.06
71109;BME280;59614;51.012;-1.648;2023-03-19T09:34:01;100814.09;;;12.44;62.03
71109;BME280;59614;51.012;-1.648;2023-03-19T09:36:26;100815.09;;;12.85;60.32
71109;BME280;59614;51.012;-1.648;2023-03-19T09:38:52;100815.19;;;12.79;58.15
71109;BME280;59614;51.012;-1.648;2023-03-19T09:44:28;100821.09;;;13.78;57.99
71109;BME280;59614;51.012;-1.648;2023-03-19T09:49:28;100817.28;;;13.90;57.48
71109;BME280;59614;51.012;-1.648;2023-03-19T09:55:30;100820.97;;;13.01;57.32
71109;BME280;59614;51.012;-1.648;2023-03-19T09:57:53;100828.72;;;12.65;59.16
71109;BME280;59614;51.012;-1.648;2023-03-19T10:00:29;100833.31;;;12.55;57.18
71109;BME280;59614;51.012;-1.648;2023-03-19T10:11:58;100851.50;;;11.63;56.87
71109;BME280;59614;51.012;-1.648;2023-03-19T10:17:42;100851.66;;;12.13;56.44
71109;BME280;59614;51.012;-1.648;2023-03-19T10:20:28;100850.31;;;11.82;57.06
71109;BME280;59614;51.012;-1.648;2023-03-19T10:26:04;100847.53;;;12.49;57.54
71109;BME280;59614;51.012;-1.648;2023-03-19T10:28:29;100848.97;;;12.67;55.97
71109;BME280;59614;51.012;-1.648;2023-03-19T10:31:13;100842.16;;;13.01;55.54
71109;BME280;59614;51.012;-1.648;2023-03-19T10:37:16;100830.72;;;13.43;55.34
71109;BME280;59614;51.012;-1.648;2023-03-19T10:39:46;100835.72;;;13.13;54.42
71109;BME280;59614;51.012;-1.648;2023-03-19T10:47:36;100842.16;;;12.54;58.52
71109;BME280;59614;51.012;-1.648;2023-03-19T10:50:02;100846.66;;;12.49;56.97
71109;BME280;59614;51.012;-1.648;2023-03-19T10:52:32;100840.28;;;12.61;56.90
71109;BME280;59614;51.012;-1.648;2023-03-19T10:57:44;100855.78;;;12.81;57.72
71109;BME280;59614;51.012;-1.648;2023-03-19T11:00:29;100854.88;;;13.27;55.72
71109;BME280;59614;51.012;-1.648;2023-03-19T11:02:59;100847.25;;;13.10;54.12
71109;BME280;59614;51.012;-1.648;2023-03-19T11:05:30;100845.03;;;12.89;57.69
71109;BME280;59614;51.012;-1.648;2023-03-19T11:08:16;100850.16;;;12.98;56.49
71109;BME280;59614;51.012;-1.648;2023-03-19T11:10:47;100860.78;;;12.49;58.13
71109;BME280;59614;51.012;-1.648;2023-03-19T11:13:22;100867.53;;;12.66;59.35
71109;BME280;59614;51.012;-1.648;2023-03-19T11:15:48;100849.53;;;12.83;58.80
71109;BME280;59614;51.012;-1.648;2023-03-19T11:18:24;100856.00;;;13.16;54.96
71109;BME280;59614;51.012;-1.648;2023-03-19T11:20:57;100853.28;;;12.22;55.80
71109;BME280;59614;51.012;-1.648;2023-03-19T11:23:27;100854.91;;;12.30;57.57
71109;BME280;59614;51.012;-1.648;2023-03-19T11:25:55;100855.47;;;12.49;57.73
71109;BME280;59614;51.012;-1.648;2023-03-19T11:28:24;100856.91;;;12.69;59.17
71109;BME280;59614;51.012;-1.648;2023-03-19T11:36:47;100867.09;;;12.41;61.06
71109;BME280;59614;51.012;-1.648;2023-03-19T11:47:35;100872.06;;;12.61;59.58
71109;BME280;59614;51.012;-1.648;2023-03-19T11:53:34;100879.34;;;11.88;62.48
71109;BME280;59614;51.012;-1.648;2023-03-19T12:01:28;100879.47;;;12.39;60.24
71109;BME280;59614;51.012;-1.648;2023-03-19T12:04:18;100878.63;;;12.38;57.83
71109;BME280;59614;51.012;-1.648;2023-03-19T12:13:06;100887.47;;;12.37;59.19
71109;BME280;59614;51.012;-1.648;2023-03-19T12:15:54;100885.53;;;12.45;59.85
71109;BME280;59614;51.012;-1.648;2023-03-19T12:21:25;100874.44;;;12.23;57.68
71109;BME280;59614;51.012;-1.648;2023-03-19T12:37:19;100866.28;;;12.87;57.25
71109;BME280;59614;51.012;-1.648;2023-03-19T12:40:05;100865.91;;;13.06;56.80
71109;BME280;59614;51.012;-1.648;2023-03-19T12:42:38;100861.66;;;12.97;56.54
71109;BME280;59614;51.012;-1.648;2023-03-19T12:45:33;100873.56;;;12.74;59.29
71109;BME280;59614;51.012;-1.648;2023-03-19T12:48:12;100873.38;;;12.35;61.79
71109;BME280;59614;51.012;-1.648;2023-03-19T12:50:43;100865.44;;;12.35;60.94
71109;BME280;59614;51.012;-1.648;2023-03-19T12:53:25;100866.94;;;12.97;59.09
71109;BME280;59614;51.012;-1.648;2023-03-19T12:56:00;100865.78;;;12.65;55.52
71109;BME280;59614;51.012;-1.648;2023-03-19T13:01:37;100864.63;;;12.80;59.69
71109;BME280;59614;51.012;-1.648;2023-03-19T13:04:12;100863.31;;;13.48;57.31
71109;BME280;59614;51.012;-1.648;2023-03-19T13:07:05;100856.72;;;13.68;54.95
71109;BME280;59614;51.012;-1.648;2023-03-19T13:09:55;100849.94;;;13.53;58.26
71109;BME280;59614;51.012;-1.648;2023-03-19T13:12:26;100857.00;;;13.54;57.53
71109;BME280;59614;51.012;-1.648;2023-03-19T13:17:56;100854.22;;;14.72;53.70
71109;BME280;59614;51.012;-1.648;2023-03-19T13:23:23;100863.34;;;13.86;55.67
71109;BME280;59614;51.012;-1.648;2023-03-19T13:25:50;100860.63;;;13.50;55.33
71109;BME280;59614;51.012;-1.648;2023-03-19T13:31:01;100854.25;;;13.15;58.87
71109;BME280;59614;51.012;-1.648;2023-03-19T13:33:27;100865.34;;;12.90;59.61
71109;BME280;59614;51.012;-1.648;2023-03-19T13:35:54;100866.47;;;13.22;60.00
71109;BME280;59614;51.012;-1.648;2023-03-19T13:38:27;100869.31;;;14.70;57.55
71109;BME280;59614;51.012;-1.648;2023-03-19T13:40:57;100858.13;;;15.21;56.76
71109;BME280;59614;51.012;-1.648;2023-03-19T13:53:51;100875.69;;;13.88;57.83
71109;BME280;59614;51.012;-1.648;2023-03-19T13:56:17;100875.84;;;13.40;57.25
71109;BME280;59614;51.012;-1.648;2023-03-19T13:58:50;100880.09;;;13.49;59.13
71109;BME280;59614;51.012;-1.648;2023-03-19T14:03:59;100872.72;;;14.02;58.71
71109;BME280;59614;51.012;-1.648;2023-03-19T14:06:46;100885.00;;;13.23;56.20
71109;BME280;59614;51.012;-1.648;2023-03-19T14:17:18;100880.16;;;14.24;53.97
71109;BME280;59614;51.012;-1.648;2023-03-19T14:19:46;100858.84;;;16.16;52.14
71109;BME280;59614;51.012;-1.648;2023-03-19T14:24:40;100866.25;;;16.60;48.25
71109;BME280;59614;51.012;-1.648;2023-03-19T14:27:28;100858.34;;;17.33;49.86
71109;BME280;59614;51.012;-1.648;2023-03-19T14:29:58;100861.38;;;16.46;48.52
71109;BME280;59614;51.012;-1.648;2023-03-19T14:32:37;100857.63;;;15.98;49.50
71109;BME280;59614;51.012;-1.648;2023-03-19T14:35:09;100858.75;;;15.00;52.53
71109;BME280;59614;51.012;-1.648;2023-03-19T14:37:47;100862.16;;;15.05;53.72
71109;BME280;59614;51.012;-1.648;2023-03-19T14:40:43;100865.13;;;14.59;54.01
71109;BME280;59614;51.012;-1.648;2023-03-19T14:43:19;100861.75;;;13.79;55.35
71109;BME280;59614;51.012;-1.648;2023-03-19T14:46:01;100875.31;;;14.04;58.15
71109;BME280;59614;51.012;-1.648;2023-03-19T14:51:52;100868.31;;;14.01;56.96